createdAt,value
2018-03-19T00:00:50.097Z,11.20
2018-03-19T00:03:17.628Z,10.15
2018-03-19T00:05:45.028Z,14.63
2018-03-19T00:08:12.471Z,11.27
2018-03-19T00:10:39.989Z,11.57
2018-03-19T00:13:07.662Z,13.02
2018-03-19T00:15:35.058Z,20.17
2018-03-19T00:18:02.473Z,13.50
2018-03-19T00:20:30.000Z,14.93
2018-03-19T00:22:57.433Z,14.30
2018-03-19T00:25:24.829Z,14.38
2018-03-19T00:27:52.521Z,15.52
2018-03-19T00:30:19.950Z,13.93
2018-03-19T00:32:47.357Z,14.73
2018-03-19T00:35:14.787Z,18.30
2018-03-19T00:37:42.200Z,16.02
2018-03-19T00:40:09.628Z,20.73
2018-03-19T00:42:37.096Z,22.02
2018-03-19T00:45:04.545Z,16.17
2018-03-19T00:47:32.015Z,17.67
2018-03-19T00:49:59.486Z,18.70
2018-03-19T00:52:26.900Z,18.55
2018-03-19T00:54:54.346Z,13.23
2018-03-19T00:57:21.758Z,23.73
2018-03-19T00:59:49.258Z,20.00
2018-03-19T01:02:16.714Z,20.62
2018-03-19T01:04:44.537Z,22.02
2018-03-19T01:07:12.018Z,17.62
2018-03-19T01:09:39.494Z,20.37
2018-03-19T01:12:06.912Z,18.87
2018-03-19T01:14:34.348Z,24.25
2018-03-19T01:17:01.826Z,18.33
2018-03-19T01:19:29.230Z,23.30
2018-03-19T01:21:56.705Z,23.83
2018-03-19T01:24:24.176Z,24.50
2018-03-19T01:26:51.644Z,22.85
2018-03-19T01:29:19.140Z,21.42
2018-03-19T01:31:46.609Z,18.02
2018-03-19T01:34:14.080Z,19.30
2018-03-19T01:36:41.511Z,18.17
2018-03-19T01:39:09.012Z,21.02
2018-03-19T01:41:36.452Z,22.33
2018-03-19T01:44:03.933Z,20.17
2018-03-19T01:46:31.389Z,22.27
2018-03-19T01:48:58.837Z,13.23
2018-03-19T01:51:26.318Z,5.50
2018-03-19T01:53:53.786Z,6.15
2018-03-19T01:56:21.192Z,4.12
2018-03-19T01:58:48.612Z,3.47
2018-03-19T02:01:16.013Z,3.42
2018-03-19T02:03:43.635Z,3.65
2018-03-19T02:06:11.094Z,3.05
2018-03-19T02:08:38.558Z,3.05
2018-03-19T02:11:05.950Z,3.28
2018-03-19T02:13:33.362Z,3.20
2018-03-19T02:16:00.785Z,2.90
2018-03-19T02:18:28.222Z,3.75
2018-03-19T02:20:55.620Z,8.27
2018-03-19T02:23:23.045Z,6.90
2018-03-19T02:25:50.473Z,3.30
2018-03-19T02:28:17.881Z,22.75
2018-03-19T02:30:45.309Z,19.75
2018-03-19T02:33:12.742Z,21.87
2018-03-19T02:35:40.173Z,18.95
2018-03-19T02:38:07.707Z,31.75
2018-03-19T02:40:35.189Z,22.52
2018-03-19T02:43:02.587Z,25.08
2018-03-19T02:45:29.994Z,22.15
2018-03-19T02:47:57.425Z,22.33
2018-03-19T02:50:24.858Z,26.08
2018-03-19T02:52:52.279Z,23.40
2018-03-19T02:55:19.756Z,22.13
2018-03-19T02:57:47.552Z,20.60
2018-03-19T03:00:15.000Z,21.42
2018-03-19T03:02:42.430Z,19.12
2018-03-19T03:05:09.877Z,20.40
2018-03-19T03:07:37.345Z,19.00
2018-03-19T03:10:05.193Z,22.75
2018-03-19T03:12:32.659Z,19.02
2018-03-19T03:15:00.119Z,15.40
2018-03-19T03:17:27.577Z,12.30
2018-03-19T03:19:55.048Z,16.42
2018-03-19T03:22:22.473Z,12.52
2018-03-19T03:24:49.970Z,15.32
2018-03-19T03:27:17.380Z,8.70
2018-03-19T03:29:44.833Z,12.10
2018-03-19T03:32:12.250Z,8.80
2018-03-19T03:34:39.714Z,10.15
2018-03-19T03:37:07.903Z,8.52
2018-03-19T03:39:35.339Z,11.05
2018-03-19T03:42:02.731Z,6.55
2018-03-19T03:44:30.176Z,5.70
2018-03-19T03:46:57.596Z,5.10
2018-03-19T03:49:25.019Z,5.70
2018-03-19T03:51:52.444Z,4.97
2018-03-19T03:54:25.539Z,6.07
2018-03-19T03:56:52.989Z,4.90
2018-03-19T03:59:20.388Z,5.15
2018-03-19T04:01:47.822Z,2.85
2018-03-19T04:04:15.283Z,5.80
2018-03-19T04:06:42.712Z,6.18
2018-03-19T04:09:10.671Z,5.05
2018-03-19T04:11:38.071Z,3.67
2018-03-19T04:14:05.537Z,5.93
2018-03-19T04:16:32.964Z,4.95
2018-03-19T04:19:00.461Z,3.15
2018-03-19T04:21:28.588Z,8.02
2018-03-19T04:23:55.989Z,5.10
2018-03-19T04:26:23.864Z,4.45
2018-03-19T04:28:51.260Z,4.97
2018-03-19T04:31:18.737Z,5.93
2018-03-19T04:33:46.151Z,4.15
2018-03-19T04:36:13.592Z,4.20
2018-03-19T04:38:41.101Z,4.97
2018-03-19T04:41:08.571Z,4.22
2018-03-19T04:43:36.010Z,3.70
2018-03-19T04:46:03.550Z,5.80
2018-03-19T04:48:30.933Z,3.85
2018-03-19T04:50:58.394Z,5.40
2018-03-19T04:53:25.820Z,4.75
2018-03-19T04:55:53.252Z,3.40
2018-03-19T04:58:20.689Z,4.37
2018-03-19T05:00:48.132Z,5.68
2018-03-19T05:03:15.550Z,5.40
2018-03-19T05:05:42.978Z,3.85
2018-03-19T05:08:10.433Z,5.55
2018-03-19T05:10:37.849Z,4.90
2018-03-19T05:13:05.279Z,5.40
2018-03-19T05:15:32.758Z,7.47
2018-03-19T05:18:00.221Z,4.60
2018-03-19T05:20:27.712Z,4.57
2018-03-19T05:22:55.173Z,3.55
2018-03-19T05:25:22.629Z,4.82
2018-03-19T05:27:50.021Z,7.30
2018-03-19T05:30:17.429Z,8.15
2018-03-19T05:32:44.867Z,7.50
2018-03-19T05:35:12.367Z,6.05
2018-03-19T05:37:39.745Z,4.37
2018-03-19T05:40:07.144Z,6.53
2018-03-19T05:42:34.647Z,6.87
2018-03-19T05:45:02.074Z,9.35
2018-03-19T05:47:29.553Z,8.07
2018-03-19T05:49:57.041Z,7.15
2018-03-19T05:52:24.545Z,10.30
2018-03-19T05:54:51.981Z,9.65
2018-03-19T05:57:19.397Z,6.68
2018-03-19T05:59:47.054Z,8.02
2018-03-19T06:02:14.515Z,6.05
2018-03-19T06:04:41.974Z,5.43
2018-03-19T06:07:09.373Z,7.97
2018-03-19T06:09:36.853Z,7.43
2018-03-19T06:12:04.244Z,8.07
2018-03-19T06:14:31.687Z,8.07
2018-03-19T06:16:59.113Z,7.03
2018-03-19T06:19:26.578Z,8.32
2018-03-19T06:21:54.125Z,6.47
2018-03-19T06:24:21.554Z,9.02
2018-03-19T06:26:49.155Z,10.63
2018-03-19T06:29:16.585Z,11.98
2018-03-19T06:31:44.005Z,6.60
2018-03-19T06:34:11.488Z,9.63
2018-03-19T06:36:39.044Z,7.93
2018-03-19T06:39:06.511Z,11.68
2018-03-19T06:41:34.128Z,13.25
2018-03-19T06:44:01.652Z,13.90
2018-03-19T06:46:29.311Z,20.30
2018-03-19T06:48:57.474Z,18.73
2018-03-19T06:51:24.945Z,14.07
2018-03-19T06:53:52.379Z,18.50
2018-03-19T06:56:19.825Z,16.58
2018-03-19T06:58:47.290Z,13.38
2018-03-19T07:01:14.731Z,15.73
2018-03-19T07:03:42.334Z,18.77
2018-03-19T07:06:09.806Z,15.05
2018-03-19T07:08:37.238Z,13.57
2018-03-19T07:11:04.644Z,16.65
2018-03-19T07:13:32.470Z,13.57
2018-03-19T07:15:59.921Z,16.17
2018-03-19T07:18:27.395Z,16.05
2018-03-19T07:20:54.906Z,13.70
2018-03-19T07:23:22.332Z,13.68
2018-03-19T07:25:49.792Z,14.52
2018-03-19T07:28:17.253Z,10.63
2018-03-19T07:30:44.672Z,13.05
2018-03-19T07:33:12.203Z,12.52
2018-03-19T07:35:39.661Z,16.02
2018-03-19T07:38:07.086Z,9.48
2018-03-19T07:40:34.533Z,10.93
2018-03-19T07:43:02.063Z,11.57
2018-03-19T07:45:29.539Z,13.10
2018-03-19T07:47:57.040Z,15.30
2018-03-19T07:50:24.426Z,13.55
2018-03-19T07:52:51.870Z,11.95
2018-03-19T07:55:19.429Z,15.60
2018-03-19T07:57:46.870Z,10.27
2018-03-19T08:00:14.292Z,8.20
2018-03-19T08:02:41.685Z,11.20
2018-03-19T08:05:09.144Z,11.70
2018-03-19T08:07:36.603Z,8.25
2018-03-19T08:10:04.101Z,10.60
2018-03-19T08:12:31.558Z,13.30
2018-03-19T08:14:58.965Z,16.12
2018-03-19T08:17:26.401Z,16.87
2018-03-19T08:19:54.302Z,16.02
2018-03-19T08:22:21.753Z,13.40
2018-03-19T08:24:49.863Z,19.27
2018-03-19T08:27:17.334Z,15.73
2018-03-19T08:29:44.753Z,10.85
2018-03-19T08:32:12.234Z,17.52
2018-03-19T08:34:40.565Z,15.93
2018-03-19T08:37:08.067Z,23.42
2018-03-19T08:39:35.546Z,20.35
2018-03-19T08:42:03.054Z,18.95
2018-03-19T08:44:30.549Z,23.33
2018-03-19T08:46:58.062Z,17.83
2018-03-19T08:49:25.634Z,18.45
2018-03-19T08:51:53.038Z,18.98
2018-03-19T08:54:21.448Z,16.60
2018-03-19T08:56:49.521Z,16.83
2018-03-19T08:59:17.179Z,16.73
2018-03-19T09:01:44.652Z,18.35
2018-03-19T09:04:12.151Z,16.40
2018-03-19T09:06:39.600Z,18.05
2018-03-19T09:09:07.077Z,22.85
2018-03-19T09:11:34.886Z,13.32
2018-03-19T09:14:02.285Z,22.95
2018-03-19T09:16:29.739Z,14.27
2018-03-19T09:18:57.190Z,31.08
2018-03-19T09:21:24.778Z,13.62
2018-03-19T09:23:52.261Z,10.48
2018-03-19T09:26:19.747Z,11.15
2018-03-19T09:28:47.473Z,12.23
2018-03-19T09:31:15.112Z,11.63
2018-03-19T09:33:42.548Z,12.60
2018-03-19T09:36:09.973Z,10.63
2018-03-19T09:38:37.439Z,10.55
2018-03-19T09:41:04.914Z,9.63
2018-03-19T09:43:32.358Z,9.85
2018-03-19T09:45:59.792Z,6.47
2018-03-19T09:48:27.238Z,15.38
2018-03-19T09:50:54.717Z,17.58
2018-03-19T09:53:22.186Z,14.23
2018-03-19T09:55:49.875Z,14.45
2018-03-19T09:58:17.326Z,13.38
2018-03-19T10:00:44.916Z,20.90
2018-03-19T10:03:12.367Z,19.27
2018-03-19T10:05:39.815Z,34.28
2018-03-19T10:08:07.529Z,20.85
2018-03-19T10:10:34.985Z,16.37
2018-03-19T10:13:02.552Z,19.52
2018-03-19T10:15:31.315Z,19.35
2018-03-19T10:17:58.756Z,19.65
2018-03-19T10:20:26.246Z,20.30
2018-03-19T10:22:53.849Z,21.25
2018-03-19T10:25:21.318Z,17.50
2018-03-19T10:27:48.857Z,13.98
2018-03-19T10:30:16.888Z,18.05
2018-03-19T10:32:44.323Z,14.60
2018-03-19T10:35:11.820Z,17.42
2018-03-19T10:37:39.265Z,13.60
2018-03-19T10:40:06.729Z,12.27
2018-03-19T10:42:34.193Z,15.93
2018-03-19T10:45:01.626Z,12.07
2018-03-19T10:47:29.105Z,10.80
2018-03-19T10:49:56.675Z,12.65
2018-03-19T10:52:24.119Z,11.55
2018-03-19T10:54:51.585Z,13.23
2018-03-19T10:57:19.024Z,11.80
2018-03-19T10:59:46.734Z,11.93
2018-03-19T11:02:16.174Z,8.20
2018-03-19T11:04:49.147Z,13.40
2018-03-19T11:07:22.096Z,10.40
2018-03-19T11:09:49.542Z,10.85
2018-03-19T11:12:17.039Z,10.23
2018-03-19T11:14:44.473Z,9.93
2018-03-19T11:17:12.945Z,14.85
2018-03-19T11:19:40.428Z,10.05
2018-03-19T11:22:07.934Z,12.40
2018-03-19T11:24:35.415Z,11.63
2018-03-19T11:27:02.849Z,13.75
2018-03-19T11:29:30.715Z,11.27
2018-03-19T11:31:58.236Z,11.18
2018-03-19T11:34:25.712Z,15.55
2018-03-19T11:36:53.350Z,11.43
2018-03-19T11:39:20.790Z,10.48
2018-03-19T11:41:48.262Z,12.85
2018-03-19T11:44:15.682Z,17.73
2018-03-19T11:46:43.145Z,9.57
2018-03-19T11:49:10.970Z,12.15
2018-03-19T11:51:38.449Z,15.02
2018-03-19T11:54:06.035Z,11.38
2018-03-19T11:56:33.450Z,11.82
2018-03-19T11:59:00.982Z,11.50
2018-03-19T12:01:28.454Z,11.25
2018-03-19T12:03:56.197Z,13.02
2018-03-19T12:06:23.789Z,16.05
2018-03-19T12:08:51.488Z,13.52
2018-03-19T12:11:18.997Z,13.40
2018-03-19T12:13:46.413Z,10.50
2018-03-19T12:16:13.849Z,11.55
2018-03-19T12:18:41.286Z,14.02
2018-03-19T12:21:08.943Z,8.32
2018-03-19T12:23:37.155Z,13.00
2018-03-19T12:26:04.699Z,11.90
2018-03-19T12:28:32.277Z,13.70
2018-03-19T12:30:59.684Z,12.35
2018-03-19T12:33:27.227Z,9.07
2018-03-19T12:35:54.714Z,8.35
2018-03-19T12:38:22.219Z,10.10
2018-03-19T12:40:49.649Z,9.25
2018-03-19T12:43:17.100Z,10.52
2018-03-19T12:45:44.517Z,10.88
2018-03-19T12:48:12.202Z,10.10
2018-03-19T12:50:40.424Z,10.65
2018-03-19T12:53:07.849Z,9.55
2018-03-19T12:55:35.342Z,9.85
2018-03-19T12:58:02.846Z,9.00
2018-03-19T13:00:30.269Z,12.98
2018-03-19T13:02:57.704Z,9.48
2018-03-19T13:05:25.146Z,9.10
2018-03-19T13:07:52.544Z,9.63
2018-03-19T13:10:19.971Z,12.00
2018-03-19T13:12:47.475Z,9.60
2018-03-19T13:15:14.909Z,10.52
2018-03-19T13:17:43.206Z,7.18
2018-03-19T13:20:10.575Z,9.15
2018-03-19T13:22:38.121Z,7.12
2018-03-19T13:25:05.551Z,12.75
2018-03-19T13:27:32.960Z,8.90
2018-03-19T13:30:00.650Z,7.80
2018-03-19T13:32:28.287Z,8.05
2018-03-19T13:34:55.790Z,8.80
2018-03-19T13:37:23.441Z,9.10
2018-03-19T13:39:50.864Z,10.50
2018-03-19T13:42:18.447Z,11.48
2018-03-19T13:44:45.916Z,6.57
2018-03-19T13:47:13.395Z,6.60
2018-03-19T13:49:40.830Z,6.47
2018-03-19T13:52:08.413Z,7.10
2018-03-19T13:54:35.804Z,5.60
2018-03-19T13:57:03.220Z,7.40
2018-03-19T13:59:30.720Z,6.32
2018-03-19T14:01:58.157Z,5.10
2018-03-19T14:04:25.630Z,6.22
2018-03-19T14:06:54.036Z,12.18
2018-03-19T14:09:21.442Z,7.40
2018-03-19T14:11:48.925Z,7.10
2018-03-19T14:14:16.344Z,4.97
2018-03-19T14:16:43.863Z,8.35
2018-03-19T14:19:11.280Z,6.28
2018-03-19T14:21:38.858Z,6.62
2018-03-19T14:24:06.310Z,4.30
2018-03-19T14:26:33.816Z,6.15
2018-03-19T14:29:01.205Z,6.97
2018-03-19T14:31:28.896Z,6.65
2018-03-19T14:33:56.367Z,7.32
2018-03-19T14:36:23.761Z,7.93
2018-03-19T14:38:51.162Z,9.50
2018-03-19T14:41:19.501Z,10.65
2018-03-19T14:43:46.993Z,7.12
2018-03-19T14:46:14.474Z,6.68
2018-03-19T14:48:41.986Z,5.07
2018-03-19T14:51:09.618Z,9.82
2018-03-19T14:53:37.058Z,8.35
2018-03-19T14:56:04.482Z,6.93
2018-03-19T14:58:31.951Z,7.00
2018-03-19T15:00:59.440Z,7.37
2018-03-19T15:03:26.927Z,6.35
2018-03-19T15:05:54.457Z,7.45
2018-03-19T15:08:21.865Z,8.60
2018-03-19T15:10:49.313Z,6.37
2018-03-19T15:13:16.724Z,9.15
2018-03-19T15:15:44.266Z,8.82
2018-03-19T15:18:11.872Z,9.70
2018-03-19T15:20:39.446Z,9.25
2018-03-19T15:23:06.924Z,8.27
2018-03-19T15:25:34.458Z,11.48
2018-03-19T15:28:02.070Z,8.25
2018-03-19T15:30:29.509Z,6.32
2018-03-19T15:32:56.958Z,8.45
2018-03-19T15:35:24.370Z,8.18
2018-03-19T15:37:51.809Z,8.15
2018-03-19T15:40:19.303Z,8.45
2018-03-19T15:42:46.736Z,7.37
2018-03-19T15:45:14.142Z,6.15
2018-03-19T15:47:41.571Z,12.18
2018-03-19T15:50:09.415Z,11.30
2018-03-19T15:52:36.858Z,10.85
2018-03-19T15:55:04.362Z,13.45
2018-03-19T15:57:31.950Z,16.23
2018-03-19T15:59:59.422Z,13.93
2018-03-19T16:02:27.136Z,16.62
2018-03-19T16:04:54.648Z,14.70
2018-03-19T16:07:22.175Z,8.32
2018-03-19T16:09:49.610Z,12.55
2018-03-19T16:12:17.073Z,11.15
2018-03-19T16:14:44.447Z,17.30
2018-03-19T16:17:11.875Z,9.77
2018-03-19T16:19:39.369Z,13.88
2018-03-19T16:22:06.827Z,14.68
2018-03-19T16:24:34.307Z,11.20
2018-03-19T16:27:01.738Z,11.82
2018-03-19T16:29:29.327Z,12.10
2018-03-19T16:31:56.778Z,16.48
2018-03-19T16:34:24.824Z,11.15
2018-03-19T16:36:52.293Z,15.48
2018-03-19T16:39:19.789Z,15.27
2018-03-19T16:41:47.246Z,16.20
2018-03-19T16:44:14.772Z,12.13
2018-03-19T16:46:42.217Z,17.50
2018-03-19T16:49:09.789Z,15.18
2018-03-19T16:51:37.766Z,17.37
2018-03-19T16:54:05.247Z,15.63
2018-03-19T16:56:32.659Z,22.50
2018-03-19T16:59:00.188Z,17.48
2018-03-19T17:01:27.600Z,15.55
2018-03-19T17:03:54.996Z,14.05
2018-03-19T17:06:22.489Z,14.87
2018-03-19T17:08:49.944Z,16.95
2018-03-19T17:11:17.403Z,16.65
2018-03-19T17:13:44.882Z,17.60
2018-03-19T17:16:12.321Z,15.07
2018-03-19T17:18:39.765Z,14.20
2018-03-19T17:21:07.208Z,16.33
2018-03-19T17:23:34.722Z,24.08
2018-03-19T17:26:02.187Z,18.85
2018-03-19T17:28:29.631Z,24.95
2018-03-19T17:30:57.146Z,19.95
2018-03-19T17:33:24.579Z,15.95
2018-03-19T17:35:52.089Z,21.23
2018-03-19T17:38:19.537Z,20.50
2018-03-19T17:40:47.009Z,18.83
2018-03-19T17:43:14.432Z,16.95
2018-03-19T17:45:41.909Z,25.70
2018-03-19T17:48:09.357Z,17.40
2018-03-19T17:50:36.774Z,23.90
2018-03-19T17:53:04.256Z,21.87
2018-03-19T17:55:31.729Z,15.85
2018-03-19T17:57:59.159Z,22.23
2018-03-19T18:00:26.611Z,21.08
2018-03-19T18:02:54.088Z,25.58
2018-03-19T18:05:21.666Z,20.40
2018-03-19T18:07:49.117Z,23.00
2018-03-19T18:10:16.611Z,27.70
2018-03-19T18:12:44.096Z,25.83
2018-03-19T18:15:11.560Z,26.33
2018-03-19T18:17:40.132Z,24.63
2018-03-19T18:20:07.708Z,24.40
2018-03-19T18:22:35.222Z,24.12
2018-03-19T18:25:02.683Z,22.15
2018-03-19T18:27:30.114Z,20.05
2018-03-19T18:29:57.549Z,26.45
2018-03-19T18:32:24.985Z,22.13
2018-03-19T18:34:52.433Z,23.75
2018-03-19T18:37:19.891Z,18.98
2018-03-19T18:39:47.390Z,22.67
2018-03-19T18:42:15.581Z,24.30
2018-03-19T18:44:43.132Z,25.08
2018-03-19T18:47:11.204Z,25.45
2018-03-19T18:49:38.637Z,22.15
2018-03-19T18:52:06.103Z,22.60
2018-03-19T18:54:33.545Z,20.50
2018-03-19T18:57:01.019Z,22.52
2018-03-19T18:59:28.979Z,21.62
2018-03-19T19:01:56.463Z,28.35
2018-03-19T19:04:23.999Z,25.23
2018-03-19T19:06:51.520Z,25.17
2018-03-19T19:09:18.978Z,24.45
2018-03-19T19:11:46.421Z,24.17
2018-03-19T19:14:14.835Z,24.73
2018-03-19T19:16:42.271Z,21.33
2018-03-19T19:19:09.801Z,27.33
2018-03-19T19:21:37.253Z,23.95
2018-03-19T19:24:04.709Z,26.35
2018-03-19T19:26:32.216Z,22.70
2018-03-19T19:28:59.703Z,23.83
2018-03-19T19:31:27.162Z,23.42
2018-03-19T19:33:54.700Z,29.40
2018-03-19T19:36:22.104Z,17.73
2018-03-19T19:38:49.517Z,27.42
2018-03-19T19:41:17.244Z,20.55
2018-03-19T19:43:44.670Z,18.08
2018-03-19T19:46:12.139Z,22.90
2018-03-19T19:48:39.577Z,22.08
2018-03-19T19:51:07.052Z,22.98
2018-03-19T19:53:34.450Z,22.67
2018-03-19T19:56:02.071Z,24.37
2018-03-19T19:58:29.552Z,21.52
2018-03-19T20:00:56.954Z,18.62
2018-03-19T20:03:24.739Z,18.50
2018-03-19T20:05:52.134Z,20.20
2018-03-19T20:08:19.567Z,18.83
2018-03-19T20:10:47.115Z,22.83
2018-03-19T20:13:14.614Z,21.42
2018-03-19T20:15:42.568Z,17.48
2018-03-19T20:18:10.420Z,22.92
2018-03-19T20:20:37.947Z,16.45
2018-03-19T20:23:05.400Z,30.40
2018-03-19T20:25:32.862Z,17.42
2018-03-19T20:28:01.214Z,19.75
2018-03-19T20:30:28.769Z,19.40
2018-03-19T20:32:56.248Z,18.40
2018-03-19T20:35:23.662Z,19.33
2018-03-19T20:37:51.106Z,20.80
2018-03-19T20:40:18.573Z,20.65
2018-03-19T20:42:46.026Z,20.10
2018-03-19T20:45:13.545Z,18.20
2018-03-19T20:47:40.987Z,16.92
2018-03-19T20:50:08.516Z,17.87
2018-03-19T20:52:35.943Z,14.18
2018-03-19T20:55:03.328Z,19.08
2018-03-19T20:57:30.798Z,14.70
2018-03-19T20:59:58.285Z,15.55
2018-03-19T21:02:25.796Z,15.68
2018-03-19T21:04:53.221Z,20.35
2018-03-19T21:07:20.641Z,15.85
2018-03-19T21:09:48.056Z,14.43
2018-03-19T21:12:15.509Z,14.87
2018-03-19T21:14:43.086Z,16.17
2018-03-19T21:17:10.539Z,16.45
2018-03-19T21:19:38.000Z,17.55
2018-03-19T21:22:05.404Z,14.93
2018-03-19T21:24:32.808Z,12.37
2018-03-19T21:27:00.246Z,14.13
2018-03-19T21:29:27.716Z,12.95
2018-03-19T21:31:55.285Z,10.98
2018-03-19T21:34:22.863Z,16.67
2018-03-19T21:36:50.329Z,14.85
2018-03-19T21:39:17.857Z,12.48
2018-03-19T21:41:45.302Z,15.45
2018-03-19T21:44:12.846Z,12.90
2018-03-19T21:46:40.292Z,17.12
2018-03-19T21:49:07.767Z,12.77
2018-03-19T21:51:35.187Z,14.38
2018-03-19T21:54:02.656Z,15.15
2018-03-19T21:56:30.089Z,16.45
2018-03-19T21:58:57.559Z,13.05
2018-03-19T22:01:25.056Z,14.32
2018-03-19T22:03:52.531Z,18.55
2018-03-19T22:06:20.025Z,17.52
2018-03-19T22:08:47.453Z,19.83
2018-03-19T22:11:15.731Z,13.00
2018-03-19T22:13:43.207Z,19.95
2018-03-19T22:16:10.682Z,19.27
2018-03-19T22:18:38.226Z,19.30
2018-03-19T22:21:05.744Z,18.02
2018-03-19T22:23:33.211Z,17.37
2018-03-19T22:26:00.680Z,16.05
2018-03-19T22:28:28.073Z,14.23
2018-03-19T22:30:55.501Z,11.45
2018-03-19T22:33:23.507Z,18.48
2018-03-19T22:35:50.947Z,23.87
2018-03-19T22:38:18.385Z,21.62
2018-03-19T22:40:45.825Z,17.83
2018-03-19T22:43:13.805Z,16.75
2018-03-19T22:45:41.262Z,15.25
2018-03-19T22:48:08.669Z,20.77
2018-03-19T22:50:36.245Z,23.67
2018-03-19T22:53:04.125Z,19.12
2018-03-19T22:55:32.425Z,22.13
2018-03-19T22:58:00.496Z,22.98
2018-03-19T23:00:27.924Z,21.50
2018-03-19T23:02:55.369Z,16.60
2018-03-19T23:05:22.765Z,20.48
2018-03-19T23:07:50.191Z,19.98
2018-03-19T23:10:17.743Z,20.27
2018-03-19T23:12:45.152Z,19.27
2018-03-19T23:15:12.618Z,14.27
2018-03-19T23:17:40.057Z,17.75
